createdAt,value
2023-02-02T00:02:05.883Z,8.50
2023-02-02T00:12:09.125Z,8.50
2023-02-02T00:22:12.453Z,8.60
2023-02-02T00:32:14.407Z,8.60
2023-02-02T00:42:18.059Z,8.70
2023-02-02T00:52:20.100Z,8.70
2023-02-02T01:02:23.481Z,8.80
2023-02-02T01:12:25.771Z,8.80
2023-02-02T01:22:29.102Z,8.80
2023-02-02T01:32:31.097Z,8.80
2023-02-02T01:42:34.408Z,8.90
2023-02-02T01:52:37.449Z,8.90
2023-02-02T02:02:43.522Z,8.70
2023-02-02T02:12:47.186Z,8.50
2023-02-02T02:23:07.976Z,8.30
2023-02-02T02:33:15.382Z,8.20
2023-02-02T02:43:21.378Z,8.10
2023-02-02T02:53:25.013Z,7.90
2023-02-02T03:03:39.918Z,8.00
2023-02-02T03:13:44.330Z,8.20
2023-02-02T03:23:46.259Z,8.20
2023-02-02T03:33:49.598Z,8.30
2023-02-02T03:43:51.518Z,8.20
2023-02-02T03:53:54.820Z,8.00
2023-02-02T04:03:56.867Z,7.70
2023-02-02T04:14:00.157Z,7.60
2023-02-02T04:24:02.089Z,7.50
2023-02-02T04:34:05.394Z,7.40
2023-02-02T04:44:13.509Z,7.30
2023-02-02T04:54:16.793Z,7.20
2023-02-02T05:04:18.786Z,7.20
2023-02-02T05:14:22.233Z,7.10
2023-02-02T05:24:24.166Z,7.10
2023-02-02T05:34:27.549Z,7.00
2023-02-02T05:44:29.526Z,7.00
2023-02-02T05:54:32.885Z,6.90
2023-02-02T06:04:34.819Z,6.90
2023-02-02T06:14:38.216Z,6.90
2023-02-02T06:24:40.138Z,6.90
2023-02-02T06:34:43.448Z,7.00
2023-02-02T06:44:45.384Z,7.00
2023-02-02T06:54:48.749Z,6.90
2023-02-02T07:04:51.624Z,6.80
2023-02-02T07:14:54.980Z,6.70
2023-02-02T07:24:56.992Z,6.50
2023-02-02T07:35:00.348Z,6.40
2023-02-02T07:45:35.870Z,6.40
2023-02-02T07:55:25.744Z,6.50
2023-02-02T08:05:28.385Z,6.90
2023-02-02T08:15:31.750Z,7.20
2023-02-02T08:25:33.744Z,7.40
2023-02-02T08:35:40.885Z,7.70
2023-02-02T08:46:02.508Z,7.90
2023-02-02T08:56:10.149Z,8.10
2023-02-02T09:06:15.015Z,8.20
2023-02-02T09:16:19.290Z,8.40
2023-02-02T09:26:23.321Z,8.60
2023-02-02T09:36:26.785Z,9.90
2023-02-02T09:46:41.233Z,11.70
2023-02-02T09:56:47.892Z,12.70
2023-02-02T10:06:52.652Z,14.10
2023-02-02T10:17:00.411Z,14.20
2023-02-02T10:27:04.880Z,14.10
2023-02-02T10:37:31.632Z,13.80
2023-02-02T10:47:34.740Z,13.90
2023-02-02T10:57:52.123Z,13.80
2023-02-02T11:07:54.531Z,12.20
2023-02-02T11:18:13.569Z,12.20
2023-02-02T11:28:20.724Z,12.00
2023-02-02T11:38:24.682Z,13.00
2023-02-02T11:48:30.449Z,13.00
2023-02-02T11:58:44.801Z,12.40
2023-02-02T12:08:47.228Z,12.00
2023-02-02T12:19:00.732Z,11.80
2023-02-02T12:29:23.539Z,11.70
2023-02-02T12:39:33.658Z,11.60
2023-02-02T12:49:46.300Z,11.40
2023-02-02T13:00:13.435Z,11.40
2023-02-02T13:10:24.876Z,11.60
2023-02-02T13:20:36.942Z,11.70
2023-02-02T13:30:40.100Z,11.80
2023-02-02T13:40:44.346Z,11.70
2023-02-02T13:51:04.402Z,11.60
2023-02-02T14:01:11.070Z,11.40
2023-02-02T14:11:21.783Z,11.40
2023-02-02T14:21:59.570Z,11.40
2023-02-02T14:32:03.986Z,11.30
2023-02-02T14:53:08.541Z,11.40
2023-02-02T15:03:49.977Z,11.40
2023-02-02T15:14:09.985Z,11.40
2023-02-02T15:24:21.517Z,11.30
2023-02-02T15:34:28.101Z,11.20
2023-02-02T15:44:31.377Z,11.30
2023-02-02T15:54:35.857Z,11.20
2023-02-02T16:04:55.476Z,11.20
2023-02-02T16:15:00.579Z,11.10
2023-02-02T16:35:56.666Z,11.00
2023-02-02T16:46:03.387Z,11.00
2023-02-02T16:56:07.270Z,10.90
2023-02-02T17:06:10.843Z,10.90
2023-02-02T17:16:15.787Z,10.90
2023-02-02T17:26:19.250Z,11.00
2023-02-02T17:36:42.737Z,10.90
2023-02-02T17:46:46.140Z,10.80
2023-02-02T17:57:26.691Z,10.80
2023-02-02T18:07:30.004Z,10.80
2023-02-02T18:17:34.042Z,10.70
2023-02-02T18:27:38.074Z,10.60
2023-02-02T18:37:46.059Z,10.60
2023-02-02T18:58:37.695Z,10.70
2023-02-02T19:08:39.709Z,10.70
2023-02-02T19:18:43.034Z,10.60
2023-02-02T19:28:45.017Z,10.60
2023-02-02T19:38:50.329Z,10.60
2023-02-02T19:48:55.901Z,10.60
2023-02-02T19:58:59.437Z,10.60
2023-02-02T20:09:02.023Z,10.60
2023-02-02T20:19:16.697Z,10.60
2023-02-02T20:29:22.194Z,10.60
2023-02-02T20:39:33.536Z,10.60
2023-02-02T20:49:37.797Z,10.60
2023-02-02T20:59:41.091Z,10.70
2023-02-02T21:09:43.586Z,10.60
2023-02-02T21:19:46.932Z,10.60
2023-02-02T21:29:48.855Z,10.50
2023-02-02T21:39:57.883Z,10.40
2023-02-02T21:50:10.369Z,10.30
2023-02-02T22:00:25.195Z,10.20
2023-02-02T22:10:38.113Z,10.00
2023-02-02T22:20:42.574Z,9.80
2023-02-02T22:30:44.709Z,9.70
2023-02-02T22:40:49.109Z,9.70
2023-02-02T22:50:51.070Z,9.80
2023-02-02T23:00:54.414Z,9.80
2023-02-02T23:10:56.365Z,9.60
2023-02-02T23:20:59.680Z,9.50
2023-02-02T23:31:01.687Z,9.40
2023-02-02T23:41:05.354Z,9.30
2023-02-02T23:51:07.286Z,9.10
